Seara, Brazil
Current Conditions -  °F | °C
As of 11:00 AM on Saturday 22 Nov 2014 (Local Time) from SBCH Reporting Station
Overcast Overcast  
Wind Chill: 70°   Ceiling: 500
Heat Index: 70°   Visibility: 6mi
Dew Point: 66°   Wind: 8mph
Humidity: 88%   Direction: 270°W
Pressure: 29.97"   Gusts: NA
Location:  27.15°S, 52.31°W
Report Text: SBCH 221300Z 27007KT 9999 BKN005 OVC010 21/19 Q1015
Loading
Personal Weather Stations






























Interactive Weather Map New forecast layout! Learn more

10-Day Weather Forecast

Advertisements
Track Severe Weather on mobile